sensor_id;sensor_type;location;lat;lon;timestamp;pressure;altitude;pressure_sealevel;temperature;humidity
31299;BME280;17927;52.350;13.402;2023-04-07T00:01:34;101590.88;;;8.27;36.54
31299;BME280;17927;52.350;13.402;2023-04-07T00:03:59;101590.44;;;8.20;36.71
31299;BME280;17927;52.350;13.402;2023-04-07T00:06:25;101580.84;;;8.16;36.53
31299;BME280;17927;52.350;13.402;2023-04-07T00:08:51;101585.59;;;8.12;36.81
31299;BME280;17927;52.350;13.402;2023-04-07T00:11:16;101589.38;;;8.10;36.96
31299;BME280;17927;52.350;13.402;2023-04-07T00:13:41;101585.25;;;8.04;36.81
31299;BME280;17927;52.350;13.402;2023-04-07T00:16:07;101577.41;;;8.01;37.20
31299;BME280;17927;52.350;13.402;2023-04-07T00:18:32;101589.34;;;7.97;37.20
31299;BME280;17927;52.350;13.402;2023-04-07T00:20:57;101578.78;;;7.93;37.08
31299;BME280;17927;52.350;13.402;2023-04-07T00:23:23;101581.81;;;7.89;37.00
31299;BME280;17927;52.350;13.402;2023-04-07T00:25:48;101576.50;;;7.87;37.23
31299;BME280;17927;52.350;13.402;2023-04-07T00:28:13;101575.78;;;7.85;37.37
31299;BME280;17927;52.350;13.402;2023-04-07T00:30:39;101577.72;;;7.83;37.17
31299;BME280;17927;52.350;13.402;2023-04-07T00:33:04;101589.44;;;7.82;37.38
31299;BME280;17927;52.350;13.402;2023-04-07T00:35:29;101578.75;;;7.81;37.57
31299;BME280;17927;52.350;13.402;2023-04-07T00:37:55;101588.75;;;7.78;37.29
31299;BME280;17927;52.350;13.402;2023-04-07T00:40:21;101583.50;;;7.77;37.27
31299;BME280;17927;52.350;13.402;2023-04-07T00:42:46;101577.34;;;7.75;37.40
31299;BME280;17927;52.350;13.402;2023-04-07T00:45:11;101579.28;;;7.73;37.61
31299;BME280;17927;52.350;13.402;2023-04-07T00:47:37;101571.22;;;7.73;37.28
31299;BME280;17927;52.350;13.402;2023-04-07T00:50:03;101574.03;;;7.71;37.50
31299;BME280;17927;52.350;13.402;2023-04-07T00:52:28;101570.44;;;7.71;37.35
31299;BME280;17927;52.350;13.402;2023-04-07T00:54:54;101568.75;;;7.70;37.38
31299;BME280;17927;52.350;13.402;2023-04-07T00:57:20;101567.03;;;7.69;37.58
31299;BME280;17927;52.350;13.402;2023-04-07T00:59:47;101567.13;;;7.67;37.65
31299;BME280;17927;52.350;13.402;2023-04-07T01:02:17;101562.69;;;7.66;37.59
31299;BME280;17927;52.350;13.402;2023-04-07T01:05:17;101563.78;;;7.64;37.81
31299;BME280;17927;52.350;13.402;2023-04-07T01:07:57;101557.84;;;7.58;37.61
31299;BME280;17927;52.350;13.402;2023-04-07T01:13:41;101551.25;;;7.50;37.89
31299;BME280;17927;52.350;13.402;2023-04-07T01:16:10;101549.97;;;7.42;37.53
31299;BME280;17927;52.350;13.402;2023-04-07T01:18:37;101552.00;;;7.39;37.85
31299;BME280;17927;52.350;13.402;2023-04-07T01:21:06;101548.56;;;7.37;37.89
31299;BME280;17927;52.350;13.402;2023-04-07T01:24:00;101539.16;;;7.29;38.25
31299;BME280;17927;52.350;13.402;2023-04-07T01:26:32;101541.50;;;7.21;37.94
31299;BME280;17927;52.350;13.402;2023-04-07T01:29:10;101543.50;;;7.18;38.17
31299;BME280;17927;52.350;13.402;2023-04-07T01:31:39;101547.47;;;7.12;38.13
31299;BME280;17927;52.350;13.402;2023-04-07T01:34:08;101540.59;;;7.08;38.10
31299;BME280;17927;52.350;13.402;2023-04-07T01:36:34;101540.03;;;7.03;38.24
31299;BME280;17927;52.350;13.402;2023-04-07T01:39:00;101535.81;;;6.98;38.36
31299;BME280;17927;52.350;13.402;2023-04-07T01:41:26;101532.38;;;6.96;38.41
31299;BME280;17927;52.350;13.402;2023-04-07T01:43:53;101532.56;;;6.93;38.29
31299;BME280;17927;52.350;13.402;2023-04-07T01:46:19;101529.13;;;6.91;38.31
31299;BME280;17927;52.350;13.402;2023-04-07T01:48:44;101527.50;;;6.89;38.61
31299;BME280;17927;52.350;13.402;2023-04-07T01:51:12;101527.59;;;6.87;38.47
31299;BME280;17927;52.350;13.402;2023-04-07T01:53:41;101532.22;;;6.85;38.60
31299;BME280;17927;52.350;13.402;2023-04-07T01:56:07;101533.28;;;6.82;38.63
31299;BME280;17927;52.350;13.402;2023-04-07T01:58:32;101535.09;;;6.82;38.74
31299;BME280;17927;52.350;13.402;2023-04-07T02:00:57;101527.91;;;6.82;38.68
31299;BME280;17927;52.350;13.402;2023-04-07T02:03:30;101529.63;;;6.83;38.94
31299;BME280;17927;52.350;13.402;2023-04-07T02:06:03;101527.78;;;6.84;38.94
31299;BME280;17927;52.350;13.402;2023-04-07T02:08:31;101526.94;;;6.83;38.84
31299;BME280;17927;52.350;13.402;2023-04-07T02:10:58;101527.78;;;6.84;39.15
31299;BME280;17927;52.350;13.402;2023-04-07T02:13:25;101528.69;;;6.84;39.18
31299;BME280;17927;52.350;13.402;2023-04-07T02:15:53;101518.00;;;6.83;39.09
31299;BME280;17927;52.350;13.402;2023-04-07T02:18:20;101521.56;;;6.83;39.14
31299;BME280;17927;52.350;13.402;2023-04-07T02:20:47;101528.69;;;6.84;39.32
31299;BME280;17927;52.350;13.402;2023-04-07T02:23:14;101518.91;;;6.83;39.20
31299;BME280;17927;52.350;13.402;2023-04-07T02:25:40;101518.97;;;6.82;39.40
31299;BME280;17927;52.350;13.402;2023-04-07T02:28:05;101524.25;;;6.83;39.41
31299;BME280;17927;52.350;13.402;2023-04-07T02:30:31;101520.63;;;6.84;39.46
31299;BME280;17927;52.350;13.402;2023-04-07T02:32:56;101517.94;;;6.84;39.72
31299;BME280;17927;52.350;13.402;2023-04-07T02:35:22;101514.47;;;6.82;39.63
31299;BME280;17927;52.350;13.402;2023-04-07T02:37:48;101516.28;;;6.82;39.50
31299;BME280;17927;52.350;13.402;2023-04-07T02:40:13;101512.84;;;6.80;39.57
31299;BME280;17927;52.350;13.402;2023-04-07T02:42:39;101516.47;;;6.79;39.58
31299;BME280;17927;52.350;13.402;2023-04-07T02:45:06;101506.03;;;6.74;39.72
31299;BME280;17927;52.350;13.402;2023-04-07T02:47:33;101511.59;;;6.71;39.87
31299;BME280;17927;52.350;13.402;2023-04-07T02:49:58;101502.69;;;6.70;39.79
31299;BME280;17927;52.350;13.402;2023-04-07T02:52:23;101512.56;;;6.70;39.85
31299;BME280;17927;52.350;13.402;2023-04-07T02:54:49;101510.00;;;6.68;39.93
31299;BME280;17927;52.350;13.402;2023-04-07T02:57:15;101510.19;;;6.65;39.75
31299;BME280;17927;52.350;13.402;2023-04-07T02:59:40;101512.97;;;6.64;39.81
31299;BME280;17927;52.350;13.402;2023-04-07T03:02:05;101504.25;;;6.60;40.00
31299;BME280;17927;52.350;13.402;2023-04-07T03:04:31;101514.25;;;6.58;39.90
31299;BME280;17927;52.350;13.402;2023-04-07T03:06:56;101513.47;;;6.56;40.17
31299;BME280;17927;52.350;13.402;2023-04-07T03:09:22;101511.63;;;6.57;40.10
31299;BME280;17927;52.350;13.402;2023-04-07T03:11:47;101511.63;;;6.57;40.10
31299;BME280;17927;52.350;13.402;2023-04-07T03:14:13;101508.09;;;6.56;40.22
31299;BME280;17927;52.350;13.402;2023-04-07T03:16:38;101506.25;;;6.57;40.21
31299;BME280;17927;52.350;13.402;2023-04-07T03:19:03;101502.63;;;6.58;40.05
31299;BME280;17927;52.350;13.402;2023-04-07T03:21:28;101500.81;;;6.58;40.01
31299;BME280;17927;52.350;13.402;2023-04-07T03:23:55;101494.56;;;6.58;40.12
31299;BME280;17927;52.350;13.402;2023-04-07T03:26:21;101494.50;;;6.59;40.20
31299;BME280;17927;52.350;13.402;2023-04-07T03:28:46;101497.06;;;6.61;40.19
31299;BME280;17927;52.350;13.402;2023-04-07T03:31:11;101490.72;;;6.62;40.33
31299;BME280;17927;52.350;13.402;2023-04-07T03:33:36;101492.47;;;6.63;40.30
31299;BME280;17927;52.350;13.402;2023-04-07T03:36:02;101484.28;;;6.64;40.25
31299;BME280;17927;52.350;13.402;2023-04-07T03:38:27;101486.97;;;6.64;40.31
31299;BME280;17927;52.350;13.402;2023-04-07T03:40:53;101485.16;;;6.65;40.32
31299;BME280;17927;52.350;13.402;2023-04-07T03:43:18;101482.47;;;6.65;40.28
31299;BME280;17927;52.350;13.402;2023-04-07T03:45:43;101486.00;;;6.65;40.46
31299;BME280;17927;52.350;13.402;2023-04-07T03:48:08;101489.66;;;6.64;40.66
31299;BME280;17927;52.350;13.402;2023-04-07T03:50:38;101483.34;;;6.65;40.72
31299;BME280;17927;52.350;13.402;2023-04-07T03:53:03;101484.97;;;6.68;40.57
31299;BME280;17927;52.350;13.402;2023-04-07T03:55:29;101479.50;;;6.69;40.65
31299;BME280;17927;52.350;13.402;2023-04-07T03:57:54;101486.47;;;6.72;40.65
31299;BME280;17927;52.350;13.402;2023-04-07T04:00:19;101488.31;;;6.72;40.66
31299;BME280;17927;52.350;13.402;2023-04-07T04:02:45;101487.44;;;6.71;40.95
31299;BME280;17927;52.350;13.402;2023-04-07T04:05:10;101483.72;;;6.74;40.66
31299;BME280;17927;52.350;13.402;2023-04-07T04:07:35;101484.47;;;6.76;40.91
31299;BME280;17927;52.350;13.402;2023-04-07T04:10:00;101479.00;;;6.77;40.92
31299;BME280;17927;52.350;13.402;2023-04-07T04:12:26;101479.00;;;6.77;41.01
31299;BME280;17927;52.350;13.402;2023-04-07T04:14:51;101487.16;;;6.76;41.40
31299;BME280;17927;52.350;13.402;2023-04-07T04:17:17;101489.09;;;6.74;41.07
31299;BME280;17927;52.350;13.402;2023-04-07T04:19:42;101493.75;;;6.70;41.18
31299;BME280;17927;52.350;13.402;2023-04-07T04:22:07;101481.41;;;6.67;41.32
31299;BME280;17927;52.350;13.402;2023-04-07T04:24:32;101486.00;;;6.65;41.42
31299;BME280;17927;52.350;13.402;2023-04-07T04:26:58;101479.16;;;6.61;41.40
31299;BME280;17927;52.350;13.402;2023-04-07T04:29:23;101479.34;;;6.58;41.46
31299;BME280;17927;52.350;13.402;2023-04-07T04:31:48;101483.81;;;6.58;41.70
31299;BME280;17927;52.350;13.402;2023-04-07T04:34:13;101488.34;;;6.57;41.46
31299;BME280;17927;52.350;13.402;2023-04-07T04:36:39;101484.91;;;6.55;41.73
31299;BME280;17927;52.350;13.402;2023-04-07T04:39:05;101489.31;;;6.56;41.65
31299;BME280;17927;52.350;13.402;2023-04-07T04:41:30;101485.75;;;6.55;41.85
31299;BME280;17927;52.350;13.402;2023-04-07T04:43:56;101490.25;;;6.55;41.87
31299;BME280;17927;52.350;13.402;2023-04-07T04:46:21;101490.25;;;6.55;41.81
31299;BME280;17927;52.350;13.402;2023-04-07T04:48:46;101493.72;;;6.57;41.94
31299;BME280;17927;52.350;13.402;2023-04-07T04:51:12;101488.25;;;6.59;41.94
31299;BME280;17927;52.350;13.402;2023-04-07T04:53:37;101493.31;;;6.63;42.07
31299;BME280;17927;52.350;13.402;2023-04-07T04:56:02;101496.69;;;6.67;41.70
31299;BME280;17927;52.350;13.402;2023-04-07T04:58:27;101491.84;;;6.72;41.86
31299;BME280;17927;52.350;13.402;2023-04-07T05:00:53;101496.94;;;6.77;41.74
31299;BME280;17927;52.350;13.402;2023-04-07T05:03:22;101501.06;;;6.82;41.96
31299;BME280;17927;52.350;13.402;2023-04-07T05:05:47;101505.16;;;6.88;41.83
31299;BME280;17927;52.350;13.402;2023-04-07T05:08:13;101499.59;;;6.91;41.67
31299;BME280;17927;52.350;13.402;2023-04-07T05:10:38;101501.84;;;6.97;41.89
31299;BME280;17927;52.350;13.402;2023-04-07T05:13:04;101511.31;;;7.03;41.87
31299;BME280;17927;52.350;13.402;2023-04-07T05:15:30;101507.38;;;7.09;41.81
31299;BME280;17927;52.350;13.402;2023-04-07T05:17:55;101499.88;;;7.14;41.78
31299;BME280;17927;52.350;13.402;2023-04-07T05:20:20;101502.16;;;7.20;41.89
31299;BME280;17927;52.350;13.402;2023-04-07T05:22:45;101498.28;;;7.24;42.07
31299;BME280;17927;52.350;13.402;2023-04-07T05:25:11;101502.41;;;7.30;41.91
31299;BME280;17927;52.350;13.402;2023-04-07T05:27:36;101498.53;;;7.34;42.20
31299;BME280;17927;52.350;13.402;2023-04-07T05:30:01;101499.94;;;7.40;41.88
31299;BME280;17927;52.350;13.402;2023-04-07T05:32:27;101497.81;;;7.45;42.20
31299;BME280;17927;52.350;13.402;2023-04-07T05:34:52;101507.28;;;7.51;41.84
31299;BME280;17927;52.350;13.402;2023-04-07T05:37:17;101506.97;;;7.55;42.09
31299;BME280;17927;52.350;13.402;2023-04-07T05:39:43;101499.34;;;7.62;41.75
31299;BME280;17927;52.350;13.402;2023-04-07T05:42:08;101503.53;;;7.66;41.65
31299;BME280;17927;52.350;13.402;2023-04-07T05:44:33;101501.41;;;7.71;41.64
31299;BME280;17927;52.350;13.402;2023-04-07T05:46:58;101507.41;;;7.75;41.68
31299;BME280;17927;52.350;13.402;2023-04-07T05:49:24;101508.06;;;7.78;41.48
31299;BME280;17927;52.350;13.402;2023-04-07T05:51:49;101504.19;;;7.83;41.15
31299;BME280;17927;52.350;13.402;2023-04-07T05:54:14;101505.94;;;7.84;40.92
31299;BME280;17927;52.350;13.402;2023-04-07T05:56:39;101499.38;;;7.88;41.30
31299;BME280;17927;52.350;13.402;2023-04-07T05:59:04;101498.28;;;7.90;41.15
31299;BME280;17927;52.350;13.402;2023-04-07T06:01:30;101506.91;;;7.96;41.35
31299;BME280;17927;52.350;13.402;2023-04-07T06:03:55;101506.50;;;8.02;41.03
31299;BME280;17927;52.350;13.402;2023-04-07T06:06:22;101508.63;;;8.10;41.34
31299;BME280;17927;52.350;13.402;2023-04-07T06:08:47;101505.41;;;8.17;41.35
31299;BME280;17927;52.350;13.402;2023-04-07T06:11:13;101506.66;;;8.25;41.29
31299;BME280;17927;52.350;13.402;2023-04-07T06:13:38;101501.63;;;8.33;41.33
31299;BME280;17927;52.350;13.402;2023-04-07T06:16:04;101505.13;;;8.46;41.28
31299;BME280;17927;52.350;13.402;2023-04-07T06:18:30;101501.47;;;8.60;41.32
31299;BME280;17927;52.350;13.402;2023-04-07T06:20:56;101505.09;;;8.72;41.66
31299;BME280;17927;52.350;13.402;2023-04-07T06:23:21;101510.34;;;8.87;41.35
31299;BME280;17927;52.350;13.402;2023-04-07T06:25:46;101514.94;;;8.97;41.67
31299;BME280;17927;52.350;13.402;2023-04-07T06:28:15;101514.13;;;9.08;41.29
31299;BME280;17927;52.350;13.402;2023-04-07T06:30:41;101513.56;;;9.16;41.28
31299;BME280;17927;52.350;13.402;2023-04-07T06:33:06;101511.25;;;9.23;41.46
31299;BME280;17927;52.350;13.402;2023-04-07T06:35:31;101513.81;;;9.24;41.47
31299;BME280;17927;52.350;13.402;2023-04-07T06:37:56;101519.13;;;9.26;41.13
31299;BME280;17927;52.350;13.402;2023-04-07T06:40:22;101516.31;;;9.27;41.25
31299;BME280;17927;52.350;13.402;2023-04-07T06:42:47;101514.44;;;9.28;40.97
31299;BME280;17927;52.350;13.402;2023-04-07T06:45:12;101519.75;;;9.29;40.74
31299;BME280;17927;52.350;13.402;2023-04-07T06:47:37;101515.94;;;9.32;40.95
31299;BME280;17927;52.350;13.402;2023-04-07T06:50:03;101520.38;;;9.33;40.73
31299;BME280;17927;52.350;13.402;2023-04-07T06:52:28;101522.09;;;9.34;40.65
31299;BME280;17927;52.350;13.402;2023-04-07T06:54:54;101520.22;;;9.35;40.73
31299;BME280;17927;52.350;13.402;2023-04-07T06:57:19;101517.22;;;9.39;40.58
31299;BME280;17927;52.350;13.402;2023-04-07T06:59:44;101518.81;;;9.42;40.83
31299;BME280;17927;52.350;13.402;2023-04-07T07:02:10;101530.88;;;9.49;40.80
31299;BME280;17927;52.350;13.402;2023-04-07T07:04:35;101520.56;;;9.54;40.86
31299;BME280;17927;52.350;13.402;2023-04-07T07:07:00;101521.09;;;9.59;40.59
31299;BME280;17927;52.350;13.402;2023-04-07T07:09:26;101521.59;;;9.65;40.59
31299;BME280;17927;52.350;13.402;2023-04-07T07:11:51;101522.09;;;9.70;40.26
31299;BME280;17927;52.350;13.402;2023-04-07T07:14:17;101528.00;;;9.75;40.17
31299;BME280;17927;52.350;13.402;2023-04-07T07:16:42;101519.41;;;9.81;40.38
31299;BME280;17927;52.350;13.402;2023-04-07T07:19:07;101527.16;;;9.86;39.94
31299;BME280;17927;52.350;13.402;2023-04-07T07:21:33;101527.53;;;9.93;40.16
31299;BME280;17927;52.350;13.402;2023-04-07T07:23:58;101526.19;;;9.98;40.32
31299;BME280;17927;52.350;13.402;2023-04-07T07:26:24;101522.03;;;10.05;40.14
31299;BME280;17927;52.350;13.402;2023-04-07T07:28:50;101523.13;;;10.14;40.33
31299;BME280;17927;52.350;13.402;2023-04-07T07:31:15;101523.41;;;10.23;39.92
31299;BME280;17927;52.350;13.402;2023-04-07T07:33:41;101529.19;;;10.29;40.18
31299;BME280;17927;52.350;13.402;2023-04-07T07:36:08;101533.22;;;10.35;39.90
31299;BME280;17927;52.350;13.402;2023-04-07T07:38:33;101534.59;;;10.41;39.92
31299;BME280;17927;52.350;13.402;2023-04-07T07:40:59;101531.28;;;10.48;39.92
31299;BME280;17927;52.350;13.402;2023-04-07T07:43:24;101538.78;;;10.56;40.00
31299;BME280;17927;52.350;13.402;2023-04-07T07:45:50;101531.03;;;10.63;39.71
31299;BME280;17927;52.350;13.402;2023-04-07T07:48:15;101534.09;;;10.70;39.92
31299;BME280;17927;52.350;13.402;2023-04-07T07:50:40;101535.31;;;10.77;39.63
31299;BME280;17927;52.350;13.402;2023-04-07T07:53:06;101542.66;;;10.86;40.05
31299;BME280;17927;52.350;13.402;2023-04-07T07:55:31;101543.66;;;10.96;40.09
31299;BME280;17927;52.350;13.402;2023-04-07T07:57:57;101548.16;;;11.07;40.03
31299;BME280;17927;52.350;13.402;2023-04-07T08:00:22;101542.84;;;11.17;39.93
31299;BME280;17927;52.350;13.402;2023-04-07T08:02:48;101542.09;;;11.26;39.64
31299;BME280;17927;52.350;13.402;2023-04-07T08:05:13;101537.13;;;11.32;39.51
31299;BME280;17927;52.350;13.402;2023-04-07T08:07:38;101541.06;;;11.39;39.31
31299;BME280;17927;52.350;13.402;2023-04-07T08:10:04;101543.97;;;11.47;39.55
31299;BME280;17927;52.350;13.402;2023-04-07T08:12:29;101538.03;;;11.53;39.39
31299;BME280;17927;52.350;13.402;2023-04-07T08:14:55;101539.94;;;11.63;39.10
31299;BME280;17927;52.350;13.402;2023-04-07T08:17:20;101538.44;;;11.70;39.30
31299;BME280;17927;52.350;13.402;2023-04-07T08:19:45;101536.91;;;11.77;39.10
31299;BME280;17927;52.350;13.402;2023-04-07T08:22:10;101549.69;;;11.86;39.12
31299;BME280;17927;52.350;13.402;2023-04-07T08:24:36;101542.00;;;11.92;39.04
31299;BME280;17927;52.350;13.402;2023-04-07T08:27:01;101539.75;;;11.97;38.58
31299;BME280;17927;52.350;13.402;2023-04-07T08:29:26;101550.38;;;12.00;38.44
31299;BME280;17927;52.350;13.402;2023-04-07T08:31:51;101543.81;;;12.02;38.47
31299;BME280;17927;52.350;13.402;2023-04-07T08:34:17;101549.13;;;12.04;38.21
31299;BME280;17927;52.350;13.402;2023-04-07T08:36:44;101546.13;;;12.07;38.21
31299;BME280;17927;52.350;13.402;2023-04-07T08:39:10;101550.69;;;12.07;37.77
31299;BME280;17927;52.350;13.402;2023-04-07T08:41:39;101551.41;;;12.09;38.27
31299;BME280;17927;52.350;13.402;2023-04-07T08:44:09;101554.59;;;12.14;37.89
31299;BME280;17927;52.350;13.402;2023-04-07T08:46:37;101554.91;;;12.21;38.20
31299;BME280;17927;52.350;13.402;2023-04-07T08:49:07;101553.38;;;12.28;37.70
31299;BME280;17927;52.350;13.402;2023-04-07T08:51:34;101550.13;;;12.34;37.76
31299;BME280;17927;52.350;13.402;2023-04-07T08:54:09;101548.59;;;12.41;37.81
31299;BME280;17927;52.350;13.402;2023-04-07T08:56:38;101557.03;;;12.48;37.91
31299;BME280;17927;52.350;13.402;2023-04-07T08:59:07;101552.63;;;12.57;37.46
31299;BME280;17927;52.350;13.402;2023-04-07T09:01:34;101563.06;;;12.61;37.07
31299;BME280;17927;52.350;13.402;2023-04-07T09:04:04;101558.38;;;12.63;36.44
31299;BME280;17927;52.350;13.402;2023-04-07T09:06:30;101566.22;;;12.67;36.54
31299;BME280;17927;52.350;13.402;2023-04-07T09:08:56;101560.69;;;12.68;35.97
31299;BME280;17927;52.350;13.402;2023-04-07T09:11:22;101556.97;;;12.69;36.23
31299;BME280;17927;52.350;13.402;2023-04-07T09:13:48;101563.84;;;12.73;35.77
31299;BME280;17927;52.350;13.402;2023-04-07T09:16:14;101556.41;;;12.75;35.24
31299;BME280;17927;52.350;13.402;2023-04-07T09:18:39;101559.84;;;12.77;35.33
31299;BME280;17927;52.350;13.402;2023-04-07T09:21:05;101557.00;;;12.79;35.03
31299;BME280;17927;52.350;13.402;2023-04-07T09:26:17;101555.16;;;12.79;34.94
31299;BME280;17927;52.350;13.402;2023-04-07T09:28:45;101561.44;;;12.80;34.70
31299;BME280;17927;52.350;13.402;2023-04-07T09:31:10;101566.00;;;12.79;34.76
31299;BME280;17927;52.350;13.402;2023-04-07T09:33:36;101567.13;;;12.77;34.79
31299;BME280;17927;52.350;13.402;2023-04-07T09:36:05;101565.28;;;12.77;34.53
31299;BME280;17927;52.350;13.402;2023-04-07T09:38:35;101565.28;;;12.77;34.83
31299;BME280;17927;52.350;13.402;2023-04-07T09:41:05;101561.84;;;12.75;34.33
31299;BME280;17927;52.350;13.402;2023-04-07T09:43:32;101569.13;;;12.75;34.39
31299;BME280;17927;52.350;13.402;2023-04-07T09:46:25;101558.13;;;12.76;34.28
31299;BME280;17927;52.350;13.402;2023-04-07T09:49:02;101565.53;;;12.74;34.17
31299;BME280;17927;52.350;13.402;2023-04-07T09:51:31;101574.56;;;12.75;34.38
31299;BME280;17927;52.350;13.402;2023-04-07T09:53:58;101574.41;;;12.76;34.26
31299;BME280;17927;52.350;13.402;2023-04-07T09:56:23;101566.28;;;12.76;33.92
31299;BME280;17927;52.350;13.402;2023-04-07T09:58:51;101569.97;;;12.75;34.13
31299;BME280;17927;52.350;13.402;2023-04-07T10:01:17;101571.69;;;12.76;34.02
31299;BME280;17927;52.350;13.402;2023-04-07T10:03:43;101569.13;;;12.75;33.95
31299;BME280;17927;52.350;13.402;2023-04-07T10:06:08;101568.25;;;12.74;34.15
31299;BME280;17927;52.350;13.402;2023-04-07T10:08:35;101562.84;;;12.74;33.64
31299;BME280;17927;52.350;13.402;2023-04-07T10:11:04;101570.69;;;12.77;33.31
31299;BME280;17927;52.350;13.402;2023-04-07T10:13:43;101565.28;;;12.77;33.44
31299;BME280;17927;52.350;13.402;2023-04-07T10:16:09;101574.84;;;12.82;33.53
31299;BME280;17927;52.350;13.402;2023-04-07T10:18:36;101575.28;;;12.87;33.54
31299;BME280;17927;52.350;13.402;2023-04-07T10:21:04;101562.44;;;12.89;33.54
31299;BME280;17927;52.350;13.402;2023-04-07T10:23:55;101574.75;;;12.93;33.03
31299;BME280;17927;52.350;13.402;2023-04-07T10:26:27;101572.88;;;12.93;33.26
31299;BME280;17927;52.350;13.402;2023-04-07T10:28:58;101576.19;;;12.97;33.40
31299;BME280;17927;52.350;13.402;2023-04-07T10:31:26;101568.06;;;12.97;32.86
31299;BME280;17927;52.350;13.402;2023-04-07T10:33:52;101570.63;;;12.99;32.84
31299;BME280;17927;52.350;13.402;2023-04-07T10:36:20;101562.47;;;12.99;32.30
31299;BME280;17927;52.350;13.402;2023-04-07T10:41:37;101563.03;;;12.92;32.03
31299;BME280;17927;52.350;13.402;2023-04-07T10:44:03;101570.31;;;12.92;32.03
31299;BME280;17927;52.350;13.402;2023-04-07T10:49:10;101573.88;;;12.92;31.59
31299;BME280;17927;52.350;13.402;2023-04-07T10:51:36;101570.03;;;12.95;31.79
31299;BME280;17927;52.350;13.402;2023-04-07T10:59:32;101565.94;;;13.10;32.01
31299;BME280;17927;52.350;13.402;2023-04-07T11:04:40;101560.38;;;13.22;32.05
31299;BME280;17927;52.350;13.402;2023-04-07T11:07:06;101560.66;;;13.29;32.15
31299;BME280;17927;52.350;13.402;2023-04-07T11:09:32;101560.25;;;13.33;32.09
31299;BME280;17927;52.350;13.402;2023-04-07T11:11:57;101559.84;;;13.38;31.89
31299;BME280;17927;52.350;13.402;2023-04-07T11:14:27;101559.16;;;13.46;32.15
31299;BME280;17927;52.350;13.402;2023-04-07T11:16:52;101557.44;;;13.54;32.24
31299;BME280;17927;52.350;13.402;2023-04-07T11:19:18;101561.13;;;13.63;32.60
31299;BME280;17927;52.350;13.402;2023-04-07T11:21:43;101562.28;;;13.70;32.48
31299;BME280;17927;52.350;13.402;2023-04-07T11:24:09;101556.56;;;13.74;32.39
31299;BME280;17927;52.350;13.402;2023-04-07T11:26:39;101557.28;;;13.76;32.68
31299;BME280;17927;52.350;13.402;2023-04-07T11:29:05;101556.28;;;13.77;32.95
31299;BME280;17927;52.350;13.402;2023-04-07T11:31:30;101558.69;;;13.80;33.10
31299;BME280;17927;52.350;13.402;2023-04-07T11:33:58;101560.28;;;13.82;33.35
31299;BME280;17927;52.350;13.402;2023-04-07T11:36:28;101564.84;;;13.82;33.18
31299;BME280;17927;52.350;13.402;2023-04-07T11:38:55;101555.69;;;13.83;33.69
31299;BME280;17927;52.350;13.402;2023-04-07T11:41:22;101556.25;;;13.86;33.92
31299;BME280;17927;52.350;13.402;2023-04-07T11:43:48;101557.84;;;13.89;33.90
31299;BME280;17927;52.350;13.402;2023-04-07T11:46:16;101560.41;;;13.91;34.17
31299;BME280;17927;52.350;13.402;2023-04-07T11:48:43;101555.25;;;13.88;34.44
31299;BME280;17927;52.350;13.402;2023-04-07T11:51:21;101556.41;;;13.85;35.03
31299;BME280;17927;52.350;13.402;2023-04-07T11:53:54;101560.41;;;13.81;34.98
31299;BME280;17927;52.350;13.402;2023-04-07T11:56:19;101562.28;;;13.80;35.24
31299;BME280;17927;52.350;13.402;2023-04-07T11:58:47;101564.00;;;13.81;35.38
31299;BME280;17927;52.350;13.402;2023-04-07T12:01:13;101564.13;;;13.80;35.47
31299;BME280;17927;52.350;13.402;2023-04-07T12:03:54;101554.97;;;13.81;36.13
31299;BME280;17927;52.350;13.402;2023-04-07T12:06:27;101560.28;;;13.82;36.55
31299;BME280;17927;52.350;13.402;2023-04-07T12:08:58;101558.13;;;13.86;36.82
31299;BME280;17927;52.350;13.402;2023-04-07T12:11:24;101567.44;;;13.93;36.83
31299;BME280;17927;52.350;13.402;2023-04-07T12:13:50;101556.25;;;13.96;37.28
31299;BME280;17927;52.350;13.402;2023-04-07T12:16:15;101558.84;;;13.98;37.31
31299;BME280;17927;52.350;13.402;2023-04-07T12:18:42;101565.81;;;14.00;37.44
31299;BME280;17927;52.350;13.402;2023-04-07T12:21:07;101559.22;;;14.03;37.94
31299;BME280;17927;52.350;13.402;2023-04-07T12:23:33;101559.94;;;14.05;38.00
31299;BME280;17927;52.350;13.402;2023-04-07T12:25:58;101560.81;;;14.06;38.04
31299;BME280;17927;52.350;13.402;2023-04-07T12:28:23;101554.81;;;14.02;38.34
31299;BME280;17927;52.350;13.402;2023-04-07T12:30:48;101554.25;;;13.98;38.43
31299;BME280;17927;52.350;13.402;2023-04-07T12:33:14;101558.25;;;13.94;38.51
31299;BME280;17927;52.350;13.402;2023-04-07T12:35:39;101565.13;;;13.89;39.12
31299;BME280;17927;52.350;13.402;2023-04-07T12:38:04;101555.97;;;13.80;39.37
31299;BME280;17927;52.350;13.402;2023-04-07T12:40:30;101559.28;;;13.74;39.44
31299;BME280;17927;52.350;13.402;2023-04-07T12:42:56;101559.13;;;13.65;39.76
31299;BME280;17927;52.350;13.402;2023-04-07T12:45:23;101565.88;;;13.61;39.90
31299;BME280;17927;52.350;13.402;2023-04-07T12:47:48;101565.44;;;13.56;40.41
31299;BME280;17927;52.350;13.402;2023-04-07T12:50:13;101557.84;;;13.50;40.48
31299;BME280;17927;52.350;13.402;2023-04-07T12:52:38;101563.59;;;13.47;40.75
31299;BME280;17927;52.350;13.402;2023-04-07T12:55:04;101569.16;;;13.45;40.84
31299;BME280;17927;52.350;13.402;2023-04-07T12:57:29;101562.28;;;13.41;40.98
31299;BME280;17927;52.350;13.402;2023-04-07T12:59:55;101557.13;;;13.38;41.22
31299;BME280;17927;52.350;13.402;2023-04-07T13:02:20;101562.84;;;13.35;41.37